Time;durP1;ratioP1;P1;durP2;ratioP2;P2;SDS_P1;SDS_P2;PMS_P1;PMS_P2;Temp;Humidity;BMP_temperature;BMP_pressure;BME280_temperature;BME280_humidity;BME280_pressure;Samples;Min_cycle;Max_cycle;Signal;HPM_P1;HPM_P2
2023/05/09 00:00:45;;;;;;;0.65;0.50;;;15.50;99.90;;;;;;5034054;28;20249;-75
2023/05/09 00:03:16;;;;;;;1.10;0.60;;;15.60;99.90;;;;;;5034510;28;20194;-74
2023/05/09 00:05:48;;;;;;;1.77;0.52;;;15.80;99.90;;;;;;5034569;28;20194;-75
2023/05/09 00:08:19;;;;;;;0.50;0.40;;;16.00;99.90;;;;;;5034462;28;20190;-75
2023/05/09 00:10:50;;;;;;;1.40;0.60;;;16.10;99.90;;;;;;5034606;28;20215;-75
2023/05/09 00:13:25;;;;;;;1.48;0.50;;;16.10;99.90;;;;;;5034476;28;20197;-74
2023/05/09 00:15:56;;;;;;;2.60;0.63;;;16.20;99.90;;;;;;5034261;28;20196;-74
2023/05/09 00:18:27;;;;;;;0.85;0.50;;;16.30;99.90;;;;;;5030892;28;20209;-75
2023/05/09 00:20:58;;;;;;;2.60;0.70;;;16.40;99.90;;;;;;5034146;28;20217;-75
2023/05/09 00:23:29;;;;;;;2.00;0.50;;;16.50;99.90;;;;;;5033915;28;20217;-75
2023/05/09 00:26:00;;;;;;;2.25;0.40;;;16.70;99.90;;;;;;5033961;28;20198;-76
2023/05/09 00:28:33;;;;;;;0.88;0.52;;;16.80;99.90;;;;;;5033916;28;20633;-74
2023/05/09 00:31:05;;;;;;;0.80;0.40;;;16.90;99.90;;;;;;5033456;28;20222;-74
2023/05/09 00:33:36;;;;;;;0.40;0.40;;;16.90;99.90;;;;;;5033650;28;20240;-75
2023/05/09 00:36:08;;;;;;;0.60;0.60;;;16.90;99.90;;;;;;5033873;28;20187;-75
2023/05/09 00:38:39;;;;;;;1.23;0.40;;;17.00;99.90;;;;;;5031220;28;20705;-75
2023/05/09 00:41:10;;;;;;;0.50;0.50;;;17.00;99.90;;;;;;5033122;28;20202;-75
2023/05/09 00:43:43;;;;;;;0.30;0.30;;;17.10;99.90;;;;;;5033805;28;20196;-76
2023/05/09 00:46:14;;;;;;;1.13;0.40;;;17.10;99.90;;;;;;5033668;28;20198;-75
2023/05/09 00:48:45;;;;;;;0.40;0.40;;;17.20;99.90;;;;;;5033590;28;20198;-75
2023/05/09 00:51:17;;;;;;;0.88;0.57;;;17.30;99.90;;;;;;5033249;28;20222;-75
2023/05/09 00:53:48;;;;;;;0.40;0.40;;;17.40;99.90;;;;;;5033618;28;20566;-76
2023/05/09 00:56:19;;;;;;;0.70;0.60;;;17.50;99.90;;;;;;5033584;28;20194;-76
2023/05/09 00:58:52;;;;;;;0.40;0.40;;;17.60;99.90;;;;;;5033294;28;20238;-76
2023/05/09 01:01:23;;;;;;;1.15;0.60;;;17.70;99.90;;;;;;5033081;28;20225;-77
2023/05/09 01:03:55;;;;;;;0.70;0.40;;;17.90;99.90;;;;;;5033351;28;20197;-77
2023/05/09 01:06:36;;;;;;;2.83;0.70;;;18.00;99.90;;;;;;5033128;28;20190;-75
2023/05/09 01:09:16;;;;;;;2.13;0.57;;;18.10;99.90;;;;;;5032457;28;20197;-75
2023/05/09 01:11:54;;;;;;;1.63;0.60;;;18.10;99.90;;;;;;5033303;28;20238;-75
2023/05/09 01:14:35;;;;;;;0.82;0.40;;;18.20;99.90;;;;;;5033401;28;20532;-75
2023/05/09 01:17:12;;;;;;;0.98;0.45;;;18.30;99.90;;;;;;5033046;28;20201;-73
2023/05/09 01:20:09;;;;;;;2.25;0.60;;;18.30;99.90;;;;;;5035849;28;20202;-73
2023/05/09 01:22:45;;;;;;;2.13;0.47;;;18.40;99.90;;;;;;5031822;28;20658;-74
2023/05/09 01:25:43;;;;;;;1.67;0.50;;;18.40;99.90;;;;;;5035142;28;20201;-74
2023/05/09 01:28:32;;;;;;;2.95;0.60;;;18.40;99.90;;;;;;5037477;28;20210;-74
2023/05/09 01:31:07;;;;;;;2.00;0.60;;;18.50;99.90;;;;;;5030586;28;20228;-74
2023/05/09 01:33:43;;;;;;;1.15;0.50;;;18.60;99.90;;;;;;5033143;28;20235;-74
2023/05/09 01:36:17;;;;;;;1.25;0.50;;;18.70;99.90;;;;;;5037940;28;20666;-74
2023/05/09 01:38:53;;;;;;;2.25;0.60;;;18.70;99.90;;;;;;5032274;28;20220;-72
2023/05/09 01:41:26;;;;;;;3.53;1.00;;;18.80;99.90;;;;;;5038038;28;20671;-75
2023/05/09 01:44:00;;;;;;;2.05;0.55;;;18.90;99.90;;;;;;5035092;28;20202;-74
2023/05/09 01:46:34;;;;;;;1.08;0.47;;;18.90;99.90;;;;;;5037020;28;20190;-73
2023/05/09 01:49:07;;;;;;;2.83;0.60;;;19.00;99.90;;;;;;5039309;28;20260;-73
2023/05/09 01:51:39;;;;;;;1.33;0.68;;;19.00;99.90;;;;;;5042709;28;20217;-72
2023/05/09 01:54:11;;;;;;;3.38;0.90;;;19.00;99.90;;;;;;5036371;28;20202;-74
2023/05/09 01:56:44;;;;;;;1.42;0.63;;;19.00;99.90;;;;;;5036097;28;20541;-73
2023/05/09 01:59:18;;;;;;;2.00;0.65;;;19.10;99.90;;;;;;5038166;28;20237;-73
2023/05/09 02:01:51;;;;;;;4.07;0.70;;;19.10;99.90;;;;;;5034821;28;20255;-74
2023/05/09 02:04:23;;;;;;;3.55;0.90;;;19.10;99.90;;;;;;5036316;28;20194;-73
2023/05/09 02:06:55;;;;;;;2.08;0.70;;;19.20;99.90;;;;;;5035315;28;20206;-74
2023/05/09 02:09:26;;;;;;;3.85;0.68;;;19.20;99.90;;;;;;5036573;28;20190;-78
2023/05/09 02:11:58;;;;;;;3.28;0.90;;;19.10;99.90;;;;;;5035507;28;20218;-74
2023/05/09 02:14:29;;;;;;;3.05;0.80;;;19.20;99.90;;;;;;5035291;28;20320;-73
2023/05/09 02:17:05;;;;;;;3.30;0.73;;;19.20;99.90;;;;;;5032232;28;20685;-73
2023/05/09 02:19:37;;;;;;;5.30;0.85;;;19.30;99.90;;;;;;5037855;28;20197;-73
2023/05/09 02:22:09;;;;;;;3.88;0.70;;;19.30;99.90;;;;;;5030300;28;20209;-73
2023/05/09 02:24:40;;;;;;;4.28;0.77;;;19.30;99.90;;;;;;5035714;28;20204;-74
2023/05/09 02:27:13;;;;;;;2.80;0.77;;;19.50;99.90;;;;;;5034979;28;20205;-73
2023/05/09 02:29:49;;;;;;;2.45;0.70;;;19.70;99.90;;;;;;5054226;28;20189;-73
2023/05/09 02:32:27;;;;;;;2.00;0.60;;;19.70;99.90;;;;;;5036306;28;20220;-74
2023/05/09 02:34:59;;;;;;;4.78;0.80;;;19.50;99.90;;;;;;5035963;28;20197;-73
2023/05/09 02:37:31;;;;;;;2.30;0.90;;;19.20;99.90;;;;;;5033885;28;20198;-74
2023/05/09 02:40:04;;;;;;;1.83;0.80;;;19.10;99.90;;;;;;5045824;28;20224;-74
2023/05/09 02:42:35;;;;;;;5.15;1.10;;;18.90;99.90;;;;;;5045363;28;20233;-77
2023/05/09 02:45:07;;;;;;;3.00;0.70;;;18.90;99.90;;;;;;5035895;28;20589;-79
2023/05/09 02:47:41;;;;;;;3.13;0.80;;;18.80;99.90;;;;;;5035582;28;20225;-75
2023/05/09 02:50:13;;;;;;;3.53;0.60;;;18.70;99.90;;;;;;5033777;28;20201;-74
2023/05/09 02:52:44;;;;;;;3.35;1.00;;;18.60;99.90;;;;;;5029185;28;20693;-76
2023/05/09 02:55:15;;;;;;;5.40;0.90;;;18.60;99.90;;;;;;5027649;28;20209;-75
2023/05/09 02:57:47;;;;;;;3.97;0.60;;;18.50;99.90;;;;;;5034260;28;20360;-72
2023/05/09 03:00:20;;;;;;;4.20;0.90;;;18.40;99.90;;;;;;5034056;28;20206;-74
2023/05/09 03:02:53;;;;;;;6.28;1.00;;;18.30;99.90;;;;;;5035216;28;20292;-73
2023/05/09 03:05:24;;;;;;;4.95;1.00;;;18.30;99.90;;;;;;5039380;28;20256;-75
2023/05/09 03:07:55;;;;;;;5.93;0.95;;;18.20;99.90;;;;;;5033476;28;20194;-73
2023/05/09 03:10:27;;;;;;;2.90;0.80;;;18.10;99.90;;;;;;5025227;28;20210;-74
2023/05/09 03:12:58;;;;;;;3.75;0.70;;;18.10;99.90;;;;;;5032145;28;20236;-75
2023/05/09 03:15:29;;;;;;;5.32;0.82;;;18.00;99.90;;;;;;5034183;28;20228;-76
2023/05/09 03:18:02;;;;;;;2.40;0.80;;;18.00;99.90;;;;;;5034964;28;20194;-74
2023/05/09 03:20:33;;;;;;;3.78;0.95;;;18.00;99.90;;;;;;5032285;28;20198;-75
2023/05/09 03:23:04;;;;;;;4.75;1.00;;;18.00;99.90;;;;;;5034134;28;20204;-74
2023/05/09 03:25:35;;;;;;;5.18;1.10;;;17.90;99.90;;;;;;5034144;28;20206;-75
2023/05/09 03:28:06;;;;;;;6.05;0.85;;;17.90;99.90;;;;;;5034657;28;20194;-74
2023/05/09 03:30:37;;;;;;;3.45;0.90;;;18.00;99.90;;;;;;5033090;28;20201;-74
2023/05/09 03:33:11;;;;;;;3.55;0.85;;;18.00;99.90;;;;;;5033271;28;20586;-74
2023/05/09 03:35:42;;;;;;;7.05;1.10;;;18.00;99.90;;;;;;5035170;28;20202;-74
2023/05/09 03:38:13;;;;;;;3.85;1.00;;;18.10;99.90;;;;;;5035488;28;20208;-76
2023/05/09 03:40:44;;;;;;;4.30;1.00;;;18.10;99.90;;;;;;5031110;28;20198;-76
2023/05/09 03:43:15;;;;;;;4.13;0.70;;;18.10;99.90;;;;;;5025282;28;20205;-72
2023/05/09 03:45:46;;;;;;;1.67;0.82;;;18.10;99.90;;;;;;5039469;28;20197;-74
2023/05/09 03:48:20;;;;;;;4.03;1.05;;;18.00;99.90;;;;;;5030776;28;20772;-73
2023/05/09 03:50:51;;;;;;;7.05;1.13;;;18.00;99.90;;;;;;5031425;28;20194;-76
2023/05/09 03:53:22;;;;;;;2.78;1.00;;;17.90;99.90;;;;;;5033917;28;20312;-74
2023/05/09 03:55:53;;;;;;;3.85;0.90;;;17.90;99.90;;;;;;5014696;28;20772;-76
2023/05/09 03:58:25;;;;;;;5.10;1.02;;;17.90;99.90;;;;;;5014514;28;20231;-76
2023/05/09 04:00:56;;;;;;;2.83;1.08;;;18.00;99.90;;;;;;5021314;28;20257;-74
2023/05/09 04:03:29;;;;;;;3.58;0.95;;;17.90;99.90;;;;;;5037460;28;20199;-74
2023/05/09 04:06:01;;;;;;;3.22;0.80;;;18.00;99.90;;;;;;5034321;28;20201;-73
2023/05/09 04:08:32;;;;;;;5.35;1.08;;;18.00;99.90;;;;;;5034145;28;20201;-76
2023/05/09 04:11:03;;;;;;;6.18;0.77;;;17.90;99.90;;;;;;5030675;28;20550;-76
2023/05/09 04:13:35;;;;;;;2.92;0.80;;;17.90;99.90;;;;;;5033081;28;20615;-73
2023/05/09 04:16:07;;;;;;;3.92;1.02;;;17.80;99.90;;;;;;5037561;28;20196;-74
2023/05/09 04:18:41;;;;;;;3.35;0.88;;;17.70;99.90;;;;;;5054037;28;20189;-73
2023/05/09 04:21:12;;;;;;;3.92;1.05;;;17.70;99.90;;;;;;5039943;28;20603;-74
2023/05/09 04:23:43;;;;;;;3.53;0.90;;;17.80;99.90;;;;;;5034096;28;20216;-75
2023/05/09 04:26:16;;;;;;;3.40;1.00;;;17.70;99.90;;;;;;5030295;28;20661;-76
2023/05/09 04:28:47;;;;;;;6.20;1.00;;;17.70;99.90;;;;;;5033195;28;20194;-74
2023/05/09 04:31:18;;;;;;;3.15;0.80;;;17.70;99.90;;;;;;5033810;28;20209;-73
2023/05/09 04:33:52;;;;;;;4.75;1.50;;;17.70;99.90;;;;;;5030768;28;20720;-74
2023/05/09 04:36:23;;;;;;;4.82;0.80;;;17.70;99.90;;;;;;5028699;28;20228;-74
2023/05/09 04:38:54;;;;;;;4.70;0.80;;;17.70;99.90;;;;;;5032376;28;20202;-74
2023/05/09 04:41:26;;;;;;;2.33;0.93;;;17.70;99.90;;;;;;5032405;28;20194;-74
2023/05/09 04:43:57;;;;;;;7.28;1.00;;;17.70;99.90;;;;;;5033245;28;20241;-74
2023/05/09 04:46:28;;;;;;;6.78;1.42;;;17.70;99.90;;;;;;5042220;28;20212;-74
2023/05/09 04:49:01;;;;;;;3.10;0.90;;;17.70;99.90;;;;;;5053419;28;20201;-74
2023/05/09 04:51:33;;;;;;;9.65;1.95;;;17.70;99.90;;;;;;5037562;28;20190;-76
2023/05/09 04:54:04;;;;;;;2.72;0.98;;;17.70;99.90;;;;;;5042150;28;20214;-76
2023/05/09 04:56:35;;;;;;;4.28;0.90;;;17.70;99.90;;;;;;5043176;28;20197;-74
2023/05/09 04:59:06;;;;;;;5.60;1.00;;;17.70;99.90;;;;;;5034088;28;20316;-73
2023/05/09 05:01:38;;;;;;;5.47;1.20;;;17.70;99.90;;;;;;5040611;28;20217;-76
2023/05/09 05:04:11;;;;;;;5.32;1.33;;;17.70;99.90;;;;;;5034478;28;20503;-75
2023/05/09 05:06:42;;;;;;;5.40;1.17;;;17.70;99.90;;;;;;5031364;28;20225;-74
2023/05/09 05:09:13;;;;;;;6.47;1.15;;;17.70;99.90;;;;;;5032835;28;20202;-73
2023/05/09 05:11:44;;;;;;;7.63;1.60;;;17.70;99.90;;;;;;5033334;28;20302;-74
2023/05/09 05:14:15;;;;;;;3.63;0.98;;;17.60;99.90;;;;;;5032992;28;20305;-74
2023/05/09 05:16:46;;;;;;;7.32;1.15;;;17.60;99.90;;;;;;5033176;28;20190;-74
2023/05/09 05:19:19;;;;;;;6.55;1.15;;;17.70;99.90;;;;;;5049847;28;20198;-74
2023/05/09 05:21:50;;;;;;;6.43;1.25;;;17.60;99.90;;;;;;5052785;28;20198;-73
2023/05/09 05:24:21;;;;;;;2.88;0.88;;;17.50;99.90;;;;;;5033464;28;20198;-74
2023/05/09 05:26:53;;;;;;;3.22;1.10;;;17.50;99.90;;;;;;5033166;28;20194;-73
2023/05/09 05:29:24;;;;;;;5.32;1.10;;;17.50;99.90;;;;;;5040381;28;20186;-73
2023/05/09 05:31:55;;;;;;;6.20;1.40;;;17.60;99.90;;;;;;5034162;28;20661;-73
2023/05/09 05:34:28;;;;;;;4.78;1.10;;;17.50;99.90;;;;;;5033184;28;20197;-73
2023/05/09 05:36:59;;;;;;;6.50;1.15;;;17.50;99.90;;;;;;5033048;28;20198;-74
2023/05/09 05:39:30;;;;;;;4.20;0.90;;;17.60;99.90;;;;;;5033022;28;20200;-75
2023/05/09 05:42:02;;;;;;;5.97;1.08;;;17.50;99.90;;;;;;5031889;28;20190;-74
2023/05/09 05:44:33;;;;;;;6.53;1.38;;;17.50;99.90;;;;;;5021390;28;20646;-74
2023/05/09 05:47:04;;;;;;;5.35;1.40;;;17.50;99.90;;;;;;5050988;28;20193;-74
2023/05/09 05:49:37;;;;;;;8.05;1.30;;;17.50;99.90;;;;;;5052940;28;20220;-74
2023/05/09 05:52:08;;;;;;;6.38;1.45;;;17.40;99.90;;;;;;5052211;28;20633;-73
2023/05/09 05:54:40;;;;;;;7.88;1.10;;;17.40;99.90;;;;;;5041967;28;20201;-73
2023/05/09 05:57:11;;;;;;;6.55;1.30;;;17.30;99.90;;;;;;5039021;28;20200;-74
2023/05/09 05:59:42;;;;;;;6.00;1.20;;;17.30;99.90;;;;;;5052830;28;20185;-74
2023/05/09 06:02:13;;;;;;;5.28;1.27;;;17.20;99.90;;;;;;5031912;28;20628;-74
2023/05/09 06:04:47;;;;;;;6.35;1.08;;;17.20;99.90;;;;;;5033839;28;20198;-74
2023/05/09 06:07:18;;;;;;;7.20;1.27;;;17.20;99.90;;;;;;5032595;28;20200;-74
2023/05/09 06:09:49;;;;;;;3.95;1.17;;;17.10;99.90;;;;;;5033087;28;20203;-74
2023/05/09 06:12:20;;;;;;;5.93;1.20;;;17.10;99.90;;;;;;5044456;28;20193;-74
2023/05/09 06:14:51;;;;;;;5.72;1.73;;;17.20;99.90;;;;;;5030079;28;20202;-74
2023/05/09 06:17:22;;;;;;;5.95;1.10;;;17.20;99.90;;;;;;5031796;28;20199;-74
2023/05/09 06:19:55;;;;;;;5.93;1.15;;;17.20;99.90;;;;;;5024681;28;20205;-74
2023/05/09 06:22:26;;;;;;;4.00;1.02;;;17.30;99.90;;;;;;5021448;28;20658;-74
2023/05/09 06:24:58;;;;;;;6.68;1.00;;;17.30;99.90;;;;;;5030648;28;20849;-75
2023/05/09 06:27:29;;;;;;;7.50;1.10;;;17.30;99.90;;;;;;5030071;28;20198;-73
2023/05/09 06:30:00;;;;;;;5.63;1.08;;;17.30;99.90;;;;;;5031593;28;20681;-74
2023/05/09 06:32:31;;;;;;;5.05;1.00;;;17.30;99.90;;;;;;5036139;28;20190;-74
2023/05/09 06:35:04;;;;;;;4.47;1.00;;;17.30;99.90;;;;;;5036258;28;20202;-75
2023/05/09 06:37:37;;;;;;;5.60;1.20;;;17.20;99.90;;;;;;5034734;28;20654;-74
2023/05/09 06:40:09;;;;;;;7.25;1.00;;;17.20;99.90;;;;;;5032345;28;20198;-74
2023/05/09 06:42:40;;;;;;;4.00;0.90;;;17.10;99.90;;;;;;5034584;28;20560;-74
2023/05/09 06:45:11;;;;;;;4.10;1.10;;;17.10;99.90;;;;;;5036452;28;20202;-74
2023/05/09 06:47:43;;;;;;;3.80;0.93;;;17.00;99.90;;;;;;5033490;28;20197;-74
2023/05/09 06:50:16;;;;;;;6.28;1.10;;;17.00;99.90;;;;;;5036878;28;20206;-74
2023/05/09 06:52:47;;;;;;;3.67;1.00;;;17.00;99.90;;;;;;5038320;28;20215;-74
2023/05/09 06:55:18;;;;;;;4.05;0.85;;;17.00;99.90;;;;;;5035580;28;20574;-74
2023/05/09 06:57:49;;;;;;;5.00;1.00;;;16.90;99.90;;;;;;5033655;28;20256;-74
2023/05/09 07:00:21;;;;;;;4.50;0.80;;;16.90;99.90;;;;;;5031728;28;20246;-74
2023/05/09 07:02:52;;;;;;;4.70;0.90;;;16.80;99.90;;;;;;5035695;28;20206;-75
2023/05/09 07:05:25;;;;;;;6.72;0.98;;;16.70;99.90;;;;;;5039990;28;20673;-74
2023/05/09 07:07:56;;;;;;;5.20;1.00;;;16.70;99.90;;;;;;5035525;28;20202;-74
2023/05/09 07:10:27;;;;;;;4.78;1.05;;;16.70;99.90;;;;;;5035485;28;20186;-75
2023/05/09 07:13:01;;;;;;;4.18;1.10;;;16.60;99.90;;;;;;5035331;28;20218;-74
2023/05/09 07:15:32;;;;;;;4.38;1.00;;;16.60;99.90;;;;;;5035415;28;20194;-75
2023/05/09 07:18:03;;;;;;;5.22;1.20;;;16.50;99.90;;;;;;5029732;28;20232;-74
2023/05/09 07:20:36;;;;;;;2.95;0.93;;;16.40;99.90;;;;;;5031748;28;20657;-74
2023/05/09 07:23:07;;;;;;;3.53;1.00;;;16.40;99.90;;;;;;5034136;28;20624;-75
2023/05/09 07:25:38;;;;;;;8.02;1.20;;;16.30;99.90;;;;;;5033875;28;20209;-74
2023/05/09 07:28:11;;;;;;;5.05;1.17;;;16.20;99.90;;;;;;5035076;28;20196;-74
2023/05/09 07:30:42;;;;;;;6.53;1.35;;;16.20;99.90;;;;;;5034894;28;20281;-75
2023/05/09 07:33:13;;;;;;;4.78;1.13;;;16.10;99.90;;;;;;5035046;28;20580;-77
2023/05/09 07:35:46;;;;;;;5.53;1.27;;;15.90;99.90;;;;;;5031347;28;20198;-76
2023/05/09 07:38:17;;;;;;;3.95;1.20;;;15.90;99.90;;;;;;5029239;28;20220;-76
2023/05/09 07:40:48;;;;;;;4.78;1.27;;;15.80;99.90;;;;;;5034530;28;20202;-77
2023/05/09 07:43:20;;;;;;;3.50;1.25;;;15.80;99.90;;;;;;5033848;28;20212;-76
2023/05/09 07:45:51;;;;;;;5.20;1.40;;;15.70;99.90;;;;;;5029585;28;20209;-74
2023/05/09 07:48:22;;;;;;;4.28;1.40;;;15.70;99.90;;;;;;5035676;28;20202;-74
2023/05/09 07:50:55;;;;;;;6.15;1.63;;;15.60;99.90;;;;;;5033758;28;20209;-74
2023/05/09 07:53:26;;;;;;;3.78;1.40;;;15.60;99.90;;;;;;5043818;28;20221;-74
2023/05/09 07:55:57;;;;;;;3.75;1.40;;;15.50;99.90;;;;;;5054468;28;20204;-74
2023/05/09 07:58:28;;;;;;;7.20;1.70;;;15.50;99.90;;;;;;5037023;28;20689;-74
2023/05/09 08:01:00;;;;;;;7.05;1.70;;;15.50;99.90;;;;;;5034138;28;20198;-74
2023/05/09 08:03:31;;;;;;;6.10;1.60;;;15.40;99.90;;;;;;5033468;28;20568;-76
2023/05/09 08:06:05;;;;;;;4.60;1.50;;;15.40;99.90;;;;;;5022522;28;20671;-76
2023/05/09 08:08:36;;;;;;;4.22;1.50;;;15.40;99.90;;;;;;5037410;28;20397;-76
2023/05/09 08:11:08;;;;;;;4.85;1.50;;;15.40;99.90;;;;;;5040035;28;20677;-76
2023/05/09 08:13:39;;;;;;;5.57;1.60;;;15.30;99.90;;;;;;5034666;28;20218;-76
2023/05/09 08:16:11;;;;;;;4.28;1.75;;;15.30;99.90;;;;;;5034095;28;20198;-76
2023/05/09 08:18:42;;;;;;;5.05;1.65;;;15.20;99.90;;;;;;5027793;28;20562;-77
2023/05/09 08:21:15;;;;;;;5.95;1.88;;;15.20;99.90;;;;;;5033718;28;20201;-76
2023/05/09 08:23:46;;;;;;;4.28;1.90;;;15.20;99.90;;;;;;5032678;28;20203;-76
2023/05/09 08:26:17;;;;;;;3.85;1.70;;;15.10;99.90;;;;;;5019759;28;20198;-76
2023/05/09 08:28:48;;;;;;;6.00;2.15;;;15.10;99.90;;;;;;5017746;28;20199;-76
2023/05/09 08:31:19;;;;;;;6.38;1.80;;;15.10;99.90;;;;;;5031335;28;20190;-77
2023/05/09 08:33:50;;;;;;;6.47;1.80;;;15.10;99.90;;;;;;5033187;28;20206;-77
2023/05/09 08:36:23;;;;;;;5.32;1.85;;;15.00;99.90;;;;;;5031436;28;20661;-77
2023/05/09 08:38:54;;;;;;;3.72;1.75;;;15.00;99.90;;;;;;5034381;28;20208;-77
2023/05/09 08:41:28;;;;;;;9.68;2.58;;;15.00;99.90;;;;;;5030323;28;20201;-76
2023/05/09 08:44:00;;;;;;;6.00;1.98;;;14.90;99.90;;;;;;5050692;28;20185;-77
2023/05/09 08:46:33;;;;;;;5.82;2.10;;;14.90;99.90;;;;;;5035065;28;20229;-76
2023/05/09 08:49:06;;;;;;;4.95;2.20;;;14.90;99.90;;;;;;5035116;28;20198;-74
2023/05/09 08:51:40;;;;;;;7.93;2.60;;;14.90;99.90;;;;;;5024323;28;20202;-75
2023/05/09 08:54:12;;;;;;;5.32;2.38;;;14.90;99.90;;;;;;5045638;28;20271;-74
2023/05/09 08:56:44;;;;;;;7.30;2.60;;;14.90;99.90;;;;;;5030497;28;20281;-74
2023/05/09 08:59:15;;;;;;;9.02;2.88;;;14.90;99.90;;;;;;5031191;28;20689;-74
2023/05/09 09:01:47;;;;;;;8.13;3.17;;;14.90;99.90;;;;;;5031814;28;20206;-74
2023/05/09 09:04:18;;;;;;;6.10;2.78;;;14.80;99.90;;;;;;5026859;28;20556;-74
2023/05/09 09:06:52;;;;;;;12.27;3.22;;;14.80;99.90;;;;;;5033287;28;20202;-74
2023/05/09 09:09:24;;;;;;;11.80;3.10;;;14.80;99.90;;;;;;5023639;28;20189;-74
2023/05/09 09:11:55;;;;;;;8.18;2.83;;;14.80;99.90;;;;;;5034059;28;20213;-74
2023/05/09 09:14:28;;;;;;;8.80;3.10;;;14.80;99.90;;;;;;5033731;28;20214;-74
2023/05/09 09:17:01;;;;;;;5.53;3.03;;;14.80;99.90;;;;;;5036653;28;20198;-74
2023/05/09 09:19:35;;;;;;;9.70;3.50;;;14.80;99.90;;;;;;5028088;28;20199;-74
2023/05/09 09:22:09;;;;;;;9.70;3.55;;;14.70;99.90;;;;;;5031010;28;20189;-74
2023/05/09 09:24:41;;;;;;;9.55;3.85;;;14.80;99.90;;;;;;5026905;28;20198;-74
2023/05/09 09:27:12;;;;;;;8.25;3.83;;;14.70;99.90;;;;;;5025226;28;20194;-75
2023/05/09 09:29:43;;;;;;;10.10;3.63;;;14.70;99.90;;;;;;5030567;28;20205;-74
2023/05/09 09:32:14;;;;;;;7.82;3.67;;;14.70;99.90;;;;;;5020176;28;20197;-74
2023/05/09 09:34:45;;;;;;;11.88;4.32;;;14.70;99.90;;;;;;5022257;28;20210;-75
2023/05/09 09:37:27;;;;;;;12.95;4.88;;;14.70;99.90;;;;;;5034565;28;20273;-74
2023/05/09 09:39:58;;;;;;;8.93;4.63;;;14.70;99.90;;;;;;5022784;28;20202;-75
2023/05/09 09:42:41;;;;;;;12.30;4.90;;;14.70;99.90;;;;;;5030063;28;20194;-74
2023/05/09 09:45:14;;;;;;;9.63;4.60;;;14.70;99.90;;;;;;5032166;28;20202;-74
2023/05/09 09:47:47;;;;;;;14.60;4.72;;;14.70;99.90;;;;;;5032022;28;20214;-75
2023/05/09 09:50:21;;;;;;;9.88;4.50;;;14.60;99.90;;;;;;5033955;28;20200;-74
2023/05/09 09:52:59;;;;;;;8.70;4.00;;;14.60;99.90;;;;;;5034253;28;20280;-74
2023/05/09 09:55:30;;;;;;;10.13;4.05;;;14.60;99.90;;;;;;5035856;28;20732;-74
2023/05/09 09:58:01;;;;;;;7.30;3.58;;;14.50;99.90;;;;;;5033638;28;20257;-74
2023/05/09 10:00:33;;;;;;;9.45;3.67;;;14.50;99.90;;;;;;5030597;28;20190;-74
2023/05/09 10:03:04;;;;;;;9.75;3.53;;;14.50;99.90;;;;;;5025873;28;20198;-74
2023/05/09 10:05:37;;;;;;;8.63;2.85;;;14.40;99.90;;;;;;5034525;28;20199;-74
2023/05/09 10:08:10;;;;;;;8.02;3.08;;;14.40;99.90;;;;;;5035045;28;20221;-74
2023/05/09 10:10:41;;;;;;;8.18;2.88;;;14.40;99.90;;;;;;5035746;28;20206;-75
2023/05/09 10:13:14;;;;;;;8.82;3.03;;;14.40;99.90;;;;;;5046259;28;20208;-74
2023/05/09 10:15:46;;;;;;;10.13;3.08;;;14.30;99.90;;;;;;5030430;28;20214;-75
2023/05/09 10:18:20;;;;;;;7.63;2.75;;;14.30;99.90;;;;;;5034128;28;20206;-75
2023/05/09 10:20:51;;;;;;;6.72;2.80;;;14.30;99.90;;;;;;5032131;28;20197;-74
2023/05/09 10:23:27;;;;;;;8.65;2.70;;;14.30;99.90;;;;;;5034583;28;20225;-74
2023/05/09 10:26:14;;;;;;;9.13;2.63;;;14.30;99.90;;;;;;5038519;28;20209;-74
2023/05/09 10:28:46;;;;;;;7.88;2.70;;;14.30;99.90;;;;;;5029851;28;20198;-75
2023/05/09 10:31:22;;;;;;;6.78;2.75;;;14.20;99.90;;;;;;5035790;28;20564;-75
2023/05/09 10:33:54;;;;;;;7.45;2.70;;;14.20;99.90;;;;;;5032005;28;20252;-75
2023/05/09 10:36:26;;;;;;;6.18;2.40;;;14.20;99.90;;;;;;5035954;28;20198;-74
2023/05/09 10:38:59;;;;;;;5.22;2.25;;;14.20;99.90;;;;;;5035610;28;20235;-74
2023/05/09 10:41:30;;;;;;;6.40;2.30;;;14.20;99.90;;;;;;5035903;28;20213;-74
2023/05/09 10:44:02;;;;;;;7.28;2.30;;;14.20;99.90;;;;;;5044022;28;20205;-74
2023/05/09 10:46:33;;;;;;;4.25;2.00;;;14.30;99.90;;;;;;5035368;28;20585;-74
2023/05/09 10:49:05;;;;;;;5.55;2.10;;;14.20;99.90;;;;;;5031734;28;20205;-74
2023/05/09 10:51:36;;;;;;;4.97;2.10;;;14.30;99.90;;;;;;5037299;28;20583;-74
2023/05/09 10:54:17;;;;;;;5.50;2.40;;;14.30;99.90;;;;;;5033343;28;20214;-74
2023/05/09 10:56:48;;;;;;;7.35;2.50;;;14.30;99.90;;;;;;5032453;28;20282;-74
2023/05/09 10:59:38;;;;;;;6.32;1.95;;;14.30;99.90;;;;;;5036457;28;20724;-74
2023/05/09 11:02:15;;;;;;;4.88;2.08;;;14.40;99.90;;;;;;5029653;28;20628;-74
2023/05/09 11:04:46;;;;;;;5.43;1.90;;;14.40;99.90;;;;;;5035103;28;20201;-75
2023/05/09 11:07:28;;;;;;;6.00;2.47;;;14.40;99.90;;;;;;5035839;28;20217;-75
2023/05/09 11:10:16;;;;;;;4.40;1.98;;;14.40;99.90;;;;;;5032338;28;20209;-75
2023/05/09 11:13:00;;;;;;;9.68;2.15;;;14.40;99.90;;;;;;5034151;28;20658;-74
2023/05/09 11:15:32;;;;;;;5.88;2.03;;;14.30;99.90;;;;;;5033601;28;20218;-77
2023/05/09 11:18:11;;;;;;;5.63;1.88;;;14.30;99.90;;;;;;5019737;28;20190;-76
2023/05/09 11:20:47;;;;;;;9.52;2.63;;;14.30;99.90;;;;;;5035359;28;20186;-76
2023/05/09 11:23:20;;;;;;;6.28;2.22;;;14.20;99.90;;;;;;5037711;28;20198;-76
2023/05/09 11:25:53;;;;;;;4.38;1.90;;;14.20;99.90;;;;;;5025611;28;20311;-76
2023/05/09 11:28:32;;;;;;;5.47;1.90;;;14.20;99.90;;;;;;5036956;28;20256;-77
2023/05/09 11:31:13;;;;;;;6.57;2.20;;;14.10;99.90;;;;;;5046333;28;20193;-77
2023/05/09 11:33:45;;;;;;;7.38;2.00;;;14.10;99.90;;;;;;5035011;28;20194;-75
2023/05/09 11:36:24;;;;;;;6.55;2.05;;;14.20;99.90;;;;;;5033726;28;20214;-76
2023/05/09 11:39:07;;;;;;;5.65;2.03;;;14.20;99.90;;;;;;5033103;28;20202;-76
2023/05/09 11:41:48;;;;;;;5.68;2.05;;;14.20;99.90;;;;;;5034004;28;20201;-77
2023/05/09 11:44:20;;;;;;;4.72;1.80;;;14.30;99.90;;;;;;5047935;28;20189;-76
2023/05/09 11:46:52;;;;;;;6.18;2.00;;;14.30;99.90;;;;;;5049925;28;20252;-76
2023/05/09 11:49:23;;;;;;;5.05;1.98;;;14.30;99.90;;;;;;5054747;28;20660;-76
2023/05/09 11:51:54;;;;;;;5.70;1.98;;;14.30;99.90;;;;;;5054716;28;20193;-76
2023/05/09 11:54:27;;;;;;;5.72;2.20;;;14.30;99.90;;;;;;5054524;28;20213;-76
2023/05/09 11:57:00;;;;;;;7.00;1.85;;;14.30;99.90;;;;;;5030316;28;20654;-76
2023/05/09 11:59:32;;;;;;;5.80;2.13;;;14.30;99.90;;;;;;5033716;28;20241;-76
2023/05/09 12:02:06;;;;;;;5.07;2.03;;;14.30;99.90;;;;;;5036719;28;20217;-76
2023/05/09 12:04:37;;;;;;;5.00;1.88;;;14.20;99.90;;;;;;5024285;28;20204;-76
2023/05/09 12:07:09;;;;;;;4.05;2.00;;;14.20;99.90;;;;;;5036056;28;20198;-76
2023/05/09 12:09:40;;;;;;;5.43;1.90;;;14.20;99.90;;;;;;5032705;28;20653;-76
2023/05/09 12:12:19;;;;;;;5.35;2.15;;;14.20;99.90;;;;;;5029064;28;20205;-76
2023/05/09 12:14:52;;;;;;;5.40;2.33;;;14.20;99.90;;;;;;5034076;28;20224;-76
2023/05/09 12:17:23;;;;;;;8.02;2.10;;;14.20;99.90;;;;;;5030933;28;20198;-76
2023/05/09 12:19:56;;;;;;;5.00;1.92;;;14.10;99.90;;;;;;5033643;28;20205;-76
2023/05/09 12:22:29;;;;;;;5.13;1.90;;;14.10;99.90;;;;;;5033344;28;20217;-76
2023/05/09 12:25:02;;;;;;;4.47;1.80;;;14.10;99.90;;;;;;5033817;28;20206;-75
2023/05/09 12:27:37;;;;;;;7.13;2.20;;;14.10;99.90;;;;;;5033864;28;20201;-76
2023/05/09 12:30:09;;;;;;;5.47;2.10;;;14.10;99.90;;;;;;5033775;28;20536;-76
2023/05/09 12:32:41;;;;;;;5.53;1.77;;;14.20;99.90;;;;;;5041676;28;20194;-76
2023/05/09 12:35:13;;;;;;;5.72;1.83;;;14.20;99.90;;;;;;5033897;28;20227;-76
2023/05/09 12:37:58;;;;;;;5.45;1.98;;;14.10;99.90;;;;;;5021079;28;20202;-76
2023/05/09 12:40:29;;;;;;;4.53;1.73;;;14.20;99.90;;;;;;5034354;28;20202;-75
2023/05/09 12:43:03;;;;;;;8.13;1.75;;;14.20;99.90;;;;;;5033680;28;20194;-76
2023/05/09 12:45:35;;;;;;;4.80;1.92;;;14.20;99.90;;;;;;5041421;28;20272;-76
2023/05/09 12:48:07;;;;;;;5.07;2.03;;;14.20;99.90;;;;;;5052249;28;20214;-76
2023/05/09 12:50:39;;;;;;;4.38;1.92;;;14.20;99.90;;;;;;5037929;28;20198;-76
2023/05/09 12:53:10;;;;;;;3.15;1.40;;;14.10;99.90;;;;;;5017911;28;20190;-76
2023/05/09 12:55:43;;;;;;;4.82;1.70;;;14.10;99.90;;;;;;5028780;28;20707;-75
2023/05/09 12:58:20;;;;;;;3.92;1.50;;;14.10;99.90;;;;;;5019607;28;20230;-76
2023/05/09 13:00:51;;;;;;;4.38;1.70;;;14.10;99.90;;;;;;5038212;28;20194;-76
2023/05/09 13:03:26;;;;;;;5.18;1.70;;;14.10;99.90;;;;;;5031679;28;20569;-76
2023/05/09 13:06:02;;;;;;;6.60;2.58;;;14.10;99.90;;;;;;5032136;28;20220;-77
2023/05/09 13:08:34;;;;;;;7.25;2.72;;;14.10;99.90;;;;;;5033479;28;20259;-75
2023/05/09 13:11:06;;;;;;;9.93;3.50;;;14.10;99.90;;;;;;5036863;28;20202;-76
2023/05/09 13:13:39;;;;;;;7.82;2.78;;;14.10;99.90;;;;;;5030822;28;20701;-75